sensor_id;sensor_type;location;lat;lon;timestamp;pressure;altitude;pressure_sealevel;temperature;humidity
34454;BME280;60061;52.080;5.312;2023-03-18T00:01:32;100703.0;;;14.31;86.09
34454;BME280;60061;52.080;5.312;2023-03-18T00:03:08;100706.0;;;14.27;86.53
34454;BME280;60061;52.080;5.312;2023-03-18T00:04:45;100703.0;;;14.25;86.84
34454;BME280;60061;52.080;5.312;2023-03-18T00:07:57;100705.0;;;14.2;86.37
34454;BME280;60061;52.080;5.312;2023-03-18T00:09:33;100705.0;;;14.14;86.28
34454;BME280;60061;52.080;5.312;2023-03-18T00:11:10;100709.0;;;14.13;86.93
34454;BME280;60061;52.080;5.312;2023-03-18T00:12:49;100711.0;;;14.11;86.99
34454;BME280;60061;52.080;5.312;2023-03-18T00:17:41;100717.0;;;14.0;86.95
34454;BME280;60061;52.080;5.312;2023-03-18T00:19:17;100718.0;;;13.95;87.24
34454;BME280;60061;52.080;5.312;2023-03-18T00:22:31;100718.0;;;13.9;88.39
34454;BME280;60061;52.080;5.312;2023-03-18T00:24:08;100710.0;;;13.83;88.21
34454;BME280;60061;52.080;5.312;2023-03-18T00:25:46;100710.0;;;13.75;88.85
34454;BME280;60061;52.080;5.312;2023-03-18T00:27:22;100715.0;;;13.67;88.83
34454;BME280;60061;52.080;5.312;2023-03-18T00:30:37;100718.0;;;13.61;89.06
34454;BME280;60061;52.080;5.312;2023-03-18T00:32:14;100720.0;;;13.56;89.87
34454;BME280;60061;52.080;5.312;2023-03-18T00:33:50;100725.0;;;13.55;90.03
34454;BME280;60061;52.080;5.312;2023-03-18T00:37:04;100727.0;;;13.54;90.02
34454;BME280;60061;52.080;5.312;2023-03-18T00:38:40;100723.0;;;13.5;90.07
34454;BME280;60061;52.080;5.312;2023-03-18T00:40:17;100726.0;;;13.49;90.02
34454;BME280;60061;52.080;5.312;2023-03-18T00:43:31;100728.0;;;13.47;90.03
34454;BME280;60061;52.080;5.312;2023-03-18T00:45:08;100727.0;;;13.44;89.91
34454;BME280;60061;52.080;5.312;2023-03-18T00:46:45;100721.0;;;13.42;89.71
34454;BME280;60061;52.080;5.312;2023-03-18T00:48:23;100711.0;;;13.42;89.83
34454;BME280;60061;52.080;5.312;2023-03-18T00:51:36;100715.0;;;13.4;90.37
34454;BME280;60061;52.080;5.312;2023-03-18T00:53:12;100718.0;;;13.38;89.97
34454;BME280;60061;52.080;5.312;2023-03-18T00:54:49;100714.0;;;13.36;90.61
34454;BME280;60061;52.080;5.312;2023-03-18T00:58:04;100719.0;;;13.33;91.07
34454;BME280;60061;52.080;5.312;2023-03-18T00:59:40;100712.0;;;13.32;91.25
34454;BME280;60061;52.080;5.312;2023-03-18T01:01:17;100718.0;;;13.3;91.7
34454;BME280;60061;52.080;5.312;2023-03-18T01:04:31;100719.0;;;13.28;91.97
34454;BME280;60061;52.080;5.312;2023-03-18T01:06:09;100715.0;;;13.3;92.64
34454;BME280;60061;52.080;5.312;2023-03-18T01:07:46;100711.0;;;13.28;92.99
34454;BME280;60061;52.080;5.312;2023-03-18T01:09:22;100716.0;;;13.27;93.22
34454;BME280;60061;52.080;5.312;2023-03-18T01:12:35;100713.0;;;13.23;93.18
34454;BME280;60061;52.080;5.312;2023-03-18T01:14:11;100714.0;;;13.22;93.26
34454;BME280;60061;52.080;5.312;2023-03-18T01:15:47;100711.0;;;13.19;93.09
34454;BME280;60061;52.080;5.312;2023-03-18T01:19:00;100712.0;;;13.17;93.63
34454;BME280;60061;52.080;5.312;2023-03-18T01:20:36;100712.0;;;13.15;94.14
34454;BME280;60061;52.080;5.312;2023-03-18T01:22:13;100716.0;;;13.13;93.89
34454;BME280;60061;52.080;5.312;2023-03-18T01:25:25;100721.0;;;13.12;93.94
34454;BME280;60061;52.080;5.312;2023-03-18T01:27:01;100722.0;;;13.13;93.91
34454;BME280;60061;52.080;5.312;2023-03-18T01:28:39;100720.0;;;13.09;93.88
34454;BME280;60061;52.080;5.312;2023-03-18T01:30:15;100724.0;;;13.07;94.25
34454;BME280;60061;52.080;5.312;2023-03-18T01:33:28;100723.0;;;13.04;94.75
34454;BME280;60061;52.080;5.312;2023-03-18T01:35:05;100726.0;;;13.04;94.88
34454;BME280;60061;52.080;5.312;2023-03-18T01:36:41;100725.0;;;13.01;95.11
34454;BME280;60061;52.080;5.312;2023-03-18T01:41:30;100721.0;;;13.04;94.9
34454;BME280;60061;52.080;5.312;2023-03-18T01:43:13;100723.0;;;13.02;95.58
34454;BME280;60061;52.080;5.312;2023-03-18T01:48:29;100727.0;;;13.03;95.39
34454;BME280;60061;52.080;5.312;2023-03-18T01:50:11;100722.0;;;13.03;95.4
34454;BME280;60061;52.080;5.312;2023-03-18T01:51:52;100718.0;;;13.03;95.28
34454;BME280;60061;52.080;5.312;2023-03-18T01:53:37;100719.0;;;13.0;95.83
34454;BME280;60061;52.080;5.312;2023-03-18T01:55:18;100722.0;;;12.97;96.45
34454;BME280;60061;52.080;5.312;2023-03-18T01:58:36;100726.0;;;12.94;96.55
34454;BME280;60061;52.080;5.312;2023-03-18T02:00:20;100722.0;;;12.9;96.86
34454;BME280;60061;52.080;5.312;2023-03-18T02:02:00;100721.0;;;12.87;96.97
34454;BME280;60061;52.080;5.312;2023-03-18T02:03:40;100725.0;;;12.85;97.11
34454;BME280;60061;52.080;5.312;2023-03-18T02:06:59;100719.0;;;12.85;96.87
34454;BME280;60061;52.080;5.312;2023-03-18T02:08:36;100718.0;;;12.82;97.04
34454;BME280;60061;52.080;5.312;2023-03-18T02:10:15;100724.0;;;12.82;97.23
34454;BME280;60061;52.080;5.312;2023-03-18T02:13:33;100723.0;;;12.79;97.75
34454;BME280;60061;52.080;5.312;2023-03-18T02:15:15;100724.0;;;12.78;97.37
34454;BME280;60061;52.080;5.312;2023-03-18T02:16:55;100724.0;;;12.77;97.48
34454;BME280;60061;52.080;5.312;2023-03-18T02:18:42;100727.0;;;12.78;97.75
34454;BME280;60061;52.080;5.312;2023-03-18T02:20:30;100733.0;;;12.79;97.55
34454;BME280;60061;52.080;5.312;2023-03-18T02:24:07;100735.0;;;12.82;97.44
34454;BME280;60061;52.080;5.312;2023-03-18T02:25:59;100733.0;;;12.82;97.72
34454;BME280;60061;52.080;5.312;2023-03-18T02:27:39;100731.0;;;12.82;97.9
34454;BME280;60061;52.080;5.312;2023-03-18T02:29:17;100728.0;;;12.85;97.58
34454;BME280;60061;52.080;5.312;2023-03-18T02:30:58;100730.0;;;12.83;97.45
34454;BME280;60061;52.080;5.312;2023-03-18T02:34:16;100728.0;;;12.8;98.17
34454;BME280;60061;52.080;5.312;2023-03-18T02:35:56;100730.0;;;12.78;98.41
34454;BME280;60061;52.080;5.312;2023-03-18T02:37:38;100730.0;;;12.75;98.35
34454;BME280;60061;52.080;5.312;2023-03-18T02:39:16;100732.0;;;12.73;98.68
34454;BME280;60061;52.080;5.312;2023-03-18T02:42:29;100735.0;;;12.72;99.06
34454;BME280;60061;52.080;5.312;2023-03-18T02:44:07;100735.0;;;12.73;98.95
34454;BME280;60061;52.080;5.312;2023-03-18T02:45:51;100732.0;;;12.71;99.15
34454;BME280;60061;52.080;5.312;2023-03-18T02:47:39;100735.0;;;12.7;99.42
34454;BME280;60061;52.080;5.312;2023-03-18T02:50:54;100732.0;;;12.72;98.65
34454;BME280;60061;52.080;5.312;2023-03-18T02:52:30;100739.0;;;12.72;99.08
34454;BME280;60061;52.080;5.312;2023-03-18T02:54:08;100733.0;;;12.72;98.56
34454;BME280;60061;52.080;5.312;2023-03-18T02:57:23;100735.0;;;12.71;98.19
34454;BME280;60061;52.080;5.312;2023-03-18T02:58:59;100735.0;;;12.71;98.12
34454;BME280;60061;52.080;5.312;2023-03-18T03:00:35;100734.0;;;12.71;98.06
34454;BME280;60061;52.080;5.312;2023-03-18T03:02:12;100734.0;;;12.74;98.0
34454;BME280;60061;52.080;5.312;2023-03-18T03:05:26;100737.0;;;12.78;98.17
34454;BME280;60061;52.080;5.312;2023-03-18T03:07:01;100740.0;;;12.77;98.56
34454;BME280;60061;52.080;5.312;2023-03-18T03:08:38;100746.0;;;12.78;99.11
34454;BME280;60061;52.080;5.312;2023-03-18T03:11:51;100746.0;;;12.75;99.12
34454;BME280;60061;52.080;5.312;2023-03-18T03:13:27;100744.0;;;12.77;99.53
34454;BME280;60061;52.080;5.312;2023-03-18T03:15:04;100744.0;;;12.76;99.55
34454;BME280;60061;52.080;5.312;2023-03-18T03:18:17;100750.0;;;12.77;99.35
34454;BME280;60061;52.080;5.312;2023-03-18T03:19:53;100748.0;;;12.77;99.55
34454;BME280;60061;52.080;5.312;2023-03-18T03:23:11;100755.0;;;12.81;99.47
34454;BME280;60061;52.080;5.312;2023-03-18T03:26:23;100762.0;;;12.82;99.43
34454;BME280;60061;52.080;5.312;2023-03-18T03:27:59;100758.0;;;12.83;99.52
34454;BME280;60061;52.080;5.312;2023-03-18T03:29:35;100762.0;;;12.8;99.5
34454;BME280;60061;52.080;5.312;2023-03-18T03:32:48;100761.0;;;12.86;99.43
34454;BME280;60061;52.080;5.312;2023-03-18T03:34:25;100759.0;;;12.83;99.74
34454;BME280;60061;52.080;5.312;2023-03-18T03:36:01;100763.0;;;12.86;99.82
34454;BME280;60061;52.080;5.312;2023-03-18T03:39:13;100768.0;;;12.88;99.71
34454;BME280;60061;52.080;5.312;2023-03-18T03:40:49;100766.0;;;12.87;100.0
34454;BME280;60061;52.080;5.312;2023-03-18T03:42:25;100769.0;;;12.87;100.0
34454;BME280;60061;52.080;5.312;2023-03-18T03:44:01;100772.0;;;12.87;100.0
34454;BME280;60061;52.080;5.312;2023-03-18T03:47:13;100773.0;;;12.9;100.0
34454;BME280;60061;52.080;5.312;2023-03-18T03:48:50;100770.0;;;12.92;100.0
34454;BME280;60061;52.080;5.312;2023-03-18T03:50:26;100770.0;;;12.92;100.0
34454;BME280;60061;52.080;5.312;2023-03-18T03:53:39;100775.0;;;12.94;100.0
34454;BME280;60061;52.080;5.312;2023-03-18T03:55:18;100773.0;;;12.94;100.0
34454;BME280;60061;52.080;5.312;2023-03-18T03:56:55;100773.0;;;12.91;100.0
34454;BME280;60061;52.080;5.312;2023-03-18T04:00:10;100776.0;;;12.9;100.0
34454;BME280;60061;52.080;5.312;2023-03-18T04:01:49;100774.0;;;12.91;100.0
34454;BME280;60061;52.080;5.312;2023-03-18T04:03:25;100777.0;;;12.91;100.0
34454;BME280;60061;52.080;5.312;2023-03-18T04:05:02;100778.0;;;12.88;100.0
34454;BME280;60061;52.080;5.312;2023-03-18T04:08:14;100776.0;;;12.89;100.0
34454;BME280;60061;52.080;5.312;2023-03-18T04:09:51;100777.0;;;12.88;100.0
34454;BME280;60061;52.080;5.312;2023-03-18T04:11:28;100780.0;;;12.89;100.0
34454;BME280;60061;52.080;5.312;2023-03-18T04:14:40;100777.0;;;12.88;100.0
34454;BME280;60061;52.080;5.312;2023-03-18T04:16:16;100780.0;;;12.85;100.0
34454;BME280;60061;52.080;5.312;2023-03-18T04:17:53;100780.0;;;12.85;100.0
34454;BME280;60061;52.080;5.312;2023-03-18T04:21:06;100780.0;;;12.86;100.0
34454;BME280;60061;52.080;5.312;2023-03-18T04:22:42;100780.0;;;12.87;100.0
34454;BME280;60061;52.080;5.312;2023-03-18T04:24:19;100782.0;;;12.88;100.0
34454;BME280;60061;52.080;5.312;2023-03-18T04:25:56;100783.0;;;12.87;100.0
34454;BME280;60061;52.080;5.312;2023-03-18T04:29:09;100784.0;;;12.9;100.0
34454;BME280;60061;52.080;5.312;2023-03-18T04:30:47;100786.0;;;12.84;100.0
34454;BME280;60061;52.080;5.312;2023-03-18T04:32:22;100790.0;;;12.83;100.0
34454;BME280;60061;52.080;5.312;2023-03-18T04:35:35;100791.0;;;12.82;100.0
34454;BME280;60061;52.080;5.312;2023-03-18T04:37:11;100788.0;;;12.82;100.0
34454;BME280;60061;52.080;5.312;2023-03-18T04:38:48;100785.0;;;12.82;100.0
34454;BME280;60061;52.080;5.312;2023-03-18T04:42:00;100784.0;;;12.8;100.0
34454;BME280;60061;52.080;5.312;2023-03-18T04:43:36;100781.0;;;12.81;100.0
34454;BME280;60061;52.080;5.312;2023-03-18T04:45:13;100783.0;;;12.82;100.0
34454;BME280;60061;52.080;5.312;2023-03-18T04:46:51;100783.0;;;12.83;100.0
34454;BME280;60061;52.080;5.312;2023-03-18T04:50:05;100789.0;;;12.82;100.0
34454;BME280;60061;52.080;5.312;2023-03-18T04:51:41;100793.0;;;12.83;100.0
34454;BME280;60061;52.080;5.312;2023-03-18T04:53:17;100787.0;;;12.83;100.0
34454;BME280;60061;52.080;5.312;2023-03-18T04:56:29;100783.0;;;12.82;100.0
34454;BME280;60061;52.080;5.312;2023-03-18T04:58:05;100786.0;;;12.8;100.0
34454;BME280;60061;52.080;5.312;2023-03-18T04:59:41;100792.0;;;12.76;100.0
34454;BME280;60061;52.080;5.312;2023-03-18T05:02:56;100795.0;;;12.75;100.0
34454;BME280;60061;52.080;5.312;2023-03-18T05:04:32;100793.0;;;12.73;100.0
34454;BME280;60061;52.080;5.312;2023-03-18T05:06:15;100793.0;;;12.72;100.0
34454;BME280;60061;52.080;5.312;2023-03-18T05:07:55;100795.0;;;12.7;100.0
34454;BME280;60061;52.080;5.312;2023-03-18T05:11:07;100799.0;;;12.69;100.0
34454;BME280;60061;52.080;5.312;2023-03-18T05:12:43;100799.0;;;12.68;100.0
34454;BME280;60061;52.080;5.312;2023-03-18T05:14:21;100805.0;;;12.68;100.0
34454;BME280;60061;52.080;5.312;2023-03-18T05:17:33;100808.0;;;12.7;100.0
34454;BME280;60061;52.080;5.312;2023-03-18T05:19:09;100810.0;;;12.68;100.0
34454;BME280;60061;52.080;5.312;2023-03-18T05:20:45;100815.0;;;12.65;100.0
34454;BME280;60061;52.080;5.312;2023-03-18T05:22:21;100824.0;;;12.67;100.0
34454;BME280;60061;52.080;5.312;2023-03-18T05:25:34;100822.0;;;12.64;100.0
34454;BME280;60061;52.080;5.312;2023-03-18T05:27:11;100827.0;;;12.61;100.0
34454;BME280;60061;52.080;5.312;2023-03-18T05:28:49;100833.0;;;12.62;100.0
34454;BME280;60061;52.080;5.312;2023-03-18T05:32:01;100835.0;;;12.61;100.0
34454;BME280;60061;52.080;5.312;2023-03-18T05:33:37;100830.0;;;12.61;100.0
34454;BME280;60061;52.080;5.312;2023-03-18T05:35:13;100832.0;;;12.61;100.0
34454;BME280;60061;52.080;5.312;2023-03-18T05:38:25;100830.0;;;12.63;100.0
34454;BME280;60061;52.080;5.312;2023-03-18T05:40:02;100837.0;;;12.65;100.0
34454;BME280;60061;52.080;5.312;2023-03-18T05:41:38;100838.0;;;12.63;100.0
34454;BME280;60061;52.080;5.312;2023-03-18T05:43:15;100838.0;;;12.62;100.0
34454;BME280;60061;52.080;5.312;2023-03-18T05:46:27;100835.0;;;12.61;100.0
34454;BME280;60061;52.080;5.312;2023-03-18T05:48:04;100843.0;;;12.62;100.0
34454;BME280;60061;52.080;5.312;2023-03-18T05:49:41;100840.0;;;12.64;100.0
34454;BME280;60061;52.080;5.312;2023-03-18T05:52:53;100835.0;;;12.64;100.0
34454;BME280;60061;52.080;5.312;2023-03-18T05:54:30;100836.0;;;12.67;100.0
34454;BME280;60061;52.080;5.312;2023-03-18T05:56:06;100839.0;;;12.65;100.0
34454;BME280;60061;52.080;5.312;2023-03-18T05:59:20;100839.0;;;12.65;100.0
34454;BME280;60061;52.080;5.312;2023-03-18T06:00:58;100846.0;;;12.67;100.0
34454;BME280;60061;52.080;5.312;2023-03-18T06:02:34;100846.0;;;12.66;100.0
34454;BME280;60061;52.080;5.312;2023-03-18T06:04:10;100843.0;;;12.67;100.0
34454;BME280;60061;52.080;5.312;2023-03-18T06:07:22;100850.0;;;12.63;100.0
34454;BME280;60061;52.080;5.312;2023-03-18T06:08:58;100851.0;;;12.63;100.0
34454;BME280;60061;52.080;5.312;2023-03-18T06:10:35;100856.0;;;12.65;100.0
34454;BME280;60061;52.080;5.312;2023-03-18T06:13:47;100853.0;;;12.61;100.0
34454;BME280;60061;52.080;5.312;2023-03-18T06:15:23;100848.0;;;12.63;100.0
34454;BME280;60061;52.080;5.312;2023-03-18T06:16:59;100845.0;;;12.62;100.0
34454;BME280;60061;52.080;5.312;2023-03-18T06:20:12;100846.0;;;12.64;100.0
34454;BME280;60061;52.080;5.312;2023-03-18T06:21:49;100852.0;;;12.68;100.0
34454;BME280;60061;52.080;5.312;2023-03-18T06:23:27;100852.0;;;12.67;100.0
34454;BME280;60061;52.080;5.312;2023-03-18T06:26:40;100858.0;;;12.7;100.0
34454;BME280;60061;52.080;5.312;2023-03-18T06:28:17;100866.0;;;12.71;100.0
34454;BME280;60061;52.080;5.312;2023-03-18T06:29:54;100865.0;;;12.7;100.0
34454;BME280;60061;52.080;5.312;2023-03-18T06:31:30;100873.0;;;12.69;100.0
34454;BME280;60061;52.080;5.312;2023-03-18T06:34:43;100872.0;;;12.7;100.0
34454;BME280;60061;52.080;5.312;2023-03-18T06:36:19;100877.0;;;12.71;100.0
34454;BME280;60061;52.080;5.312;2023-03-18T06:37:57;100880.0;;;12.7;100.0
34454;BME280;60061;52.080;5.312;2023-03-18T06:41:09;100885.0;;;12.69;100.0
34454;BME280;60061;52.080;5.312;2023-03-18T06:42:46;100887.0;;;12.7;100.0
34454;BME280;60061;52.080;5.312;2023-03-18T06:44:22;100880.0;;;12.72;100.0
34454;BME280;60061;52.080;5.312;2023-03-18T06:47:35;100874.0;;;12.75;100.0
34454;BME280;60061;52.080;5.312;2023-03-18T06:49:13;100874.0;;;12.75;100.0
34454;BME280;60061;52.080;5.312;2023-03-18T06:50:49;100872.0;;;12.75;100.0
34454;BME280;60061;52.080;5.312;2023-03-18T06:52:26;100877.0;;;12.74;100.0
34454;BME280;60061;52.080;5.312;2023-03-18T06:55:38;100889.0;;;12.76;100.0
34454;BME280;60061;52.080;5.312;2023-03-18T06:57:14;100892.0;;;12.79;100.0
34454;BME280;60061;52.080;5.312;2023-03-18T06:58:50;100893.0;;;12.79;100.0
34454;BME280;60061;52.080;5.312;2023-03-18T07:02:03;100892.0;;;12.81;100.0
34454;BME280;60061;52.080;5.312;2023-03-18T07:03:39;100897.0;;;12.79;100.0
34454;BME280;60061;52.080;5.312;2023-03-18T07:05:16;100895.0;;;12.8;100.0
34454;BME280;60061;52.080;5.312;2023-03-18T07:08:29;100902.0;;;12.85;100.0
34454;BME280;60061;52.080;5.312;2023-03-18T07:10:08;100906.0;;;12.83;100.0
34454;BME280;60061;52.080;5.312;2023-03-18T07:11:53;100914.0;;;12.86;100.0
34454;BME280;60061;52.080;5.312;2023-03-18T07:13:29;100910.0;;;12.85;100.0
34454;BME280;60061;52.080;5.312;2023-03-18T07:16:42;100907.0;;;12.84;100.0
34454;BME280;60061;52.080;5.312;2023-03-18T07:18:18;100908.0;;;12.86;100.0
34454;BME280;60061;52.080;5.312;2023-03-18T07:19:55;100913.0;;;12.87;100.0
34454;BME280;60061;52.080;5.312;2023-03-18T07:23:07;100915.0;;;12.85;100.0
34454;BME280;60061;52.080;5.312;2023-03-18T07:24:44;100919.0;;;12.87;100.0
34454;BME280;60061;52.080;5.312;2023-03-18T07:26:20;100913.0;;;12.89;100.0
34454;BME280;60061;52.080;5.312;2023-03-18T07:27:58;100920.0;;;12.92;100.0
34454;BME280;60061;52.080;5.312;2023-03-18T07:31:10;100923.0;;;12.95;100.0
34454;BME280;60061;52.080;5.312;2023-03-18T07:32:47;100924.0;;;12.95;100.0
34454;BME280;60061;52.080;5.312;2023-03-18T07:34:23;100925.0;;;12.94;100.0
34454;BME280;60061;52.080;5.312;2023-03-18T07:37:35;100921.0;;;12.9;100.0
34454;BME280;60061;52.080;5.312;2023-03-18T07:39:12;100932.0;;;12.95;100.0
34454;BME280;60061;52.080;5.312;2023-03-18T07:40:49;100935.0;;;12.98;100.0
34454;BME280;60061;52.080;5.312;2023-03-18T07:44:01;100939.0;;;12.99;100.0
34454;BME280;60061;52.080;5.312;2023-03-18T07:45:39;100936.0;;;12.97;100.0
34454;BME280;60061;52.080;5.312;2023-03-18T07:47:15;100941.0;;;13.03;100.0
34454;BME280;60061;52.080;5.312;2023-03-18T07:48:51;100936.0;;;13.05;100.0
34454;BME280;60061;52.080;5.312;2023-03-18T07:52:03;100941.0;;;13.02;100.0
34454;BME280;60061;52.080;5.312;2023-03-18T07:53:39;100940.0;;;13.03;100.0
34454;BME280;60061;52.080;5.312;2023-03-18T07:55:15;100947.0;;;13.07;100.0
34454;BME280;60061;52.080;5.312;2023-03-18T07:58:28;100945.0;;;13.04;100.0
34454;BME280;60061;52.080;5.312;2023-03-18T08:00:04;100945.0;;;13.06;100.0
34454;BME280;60061;52.080;5.312;2023-03-18T08:01:42;100950.0;;;13.08;100.0
34454;BME280;60061;52.080;5.312;2023-03-18T08:04:54;100950.0;;;13.07;100.0
34454;BME280;60061;52.080;5.312;2023-03-18T08:06:30;100949.0;;;13.1;100.0
34454;BME280;60061;52.080;5.312;2023-03-18T08:08:07;100955.0;;;13.14;100.0
34454;BME280;60061;52.080;5.312;2023-03-18T08:09:42;100952.0;;;13.12;100.0
34454;BME280;60061;52.080;5.312;2023-03-18T08:12:55;100946.0;;;13.03;100.0
34454;BME280;60061;52.080;5.312;2023-03-18T08:14:32;100948.0;;;13.15;100.0
34454;BME280;60061;52.080;5.312;2023-03-18T08:16:08;100948.0;;;13.22;100.0
34454;BME280;60061;52.080;5.312;2023-03-18T08:19:20;100955.0;;;13.3;100.0
34454;BME280;60061;52.080;5.312;2023-03-18T08:20:56;100953.0;;;13.3;100.0
34454;BME280;60061;52.080;5.312;2023-03-18T08:22:32;100948.0;;;13.35;100.0
34454;BME280;60061;52.080;5.312;2023-03-18T08:25:46;100948.0;;;13.36;100.0
34454;BME280;60061;52.080;5.312;2023-03-18T08:27:24;100942.0;;;13.49;100.0
34454;BME280;60061;52.080;5.312;2023-03-18T08:29:00;100942.0;;;13.48;100.0
34454;BME280;60061;52.080;5.312;2023-03-18T08:30:38;100940.0;;;13.55;100.0
34454;BME280;60061;52.080;5.312;2023-03-18T08:33:51;100940.0;;;13.52;100.0
34454;BME280;60061;52.080;5.312;2023-03-18T08:35:27;100940.0;;;13.56;100.0
34454;BME280;60061;52.080;5.312;2023-03-18T08:37:04;100935.0;;;13.62;100.0
34454;BME280;60061;52.080;5.312;2023-03-18T08:40:17;100933.0;;;13.63;100.0
34454;BME280;60061;52.080;5.312;2023-03-18T08:41:54;100935.0;;;13.63;100.0
34454;BME280;60061;52.080;5.312;2023-03-18T08:43:30;100930.0;;;13.55;100.0
34454;BME280;60061;52.080;5.312;2023-03-18T08:46:43;100930.0;;;13.6;100.0
34454;BME280;60061;52.080;5.312;2023-03-18T08:48:19;100937.0;;;13.61;100.0
34454;BME280;60061;52.080;5.312;2023-03-18T08:49:57;100935.0;;;13.63;100.0
34454;BME280;60061;52.080;5.312;2023-03-18T08:51:33;100940.0;;;13.65;100.0
34454;BME280;60061;52.080;5.312;2023-03-18T08:54:46;100933.0;;;13.7;100.0
34454;BME280;60061;52.080;5.312;2023-03-18T08:56:22;100938.0;;;13.78;100.0
34454;BME280;60061;52.080;5.312;2023-03-18T08:57:58;100937.0;;;13.81;100.0
34454;BME280;60061;52.080;5.312;2023-03-18T09:01:10;100941.0;;;13.91;100.0
34454;BME280;60061;52.080;5.312;2023-03-18T09:02:47;100941.0;;;14.07;100.0
34454;BME280;60061;52.080;5.312;2023-03-18T09:04:24;100942.0;;;14.04;100.0
34454;BME280;60061;52.080;5.312;2023-03-18T09:07:37;100944.0;;;14.1;100.0
34454;BME280;60061;52.080;5.312;2023-03-18T09:09:13;100951.0;;;14.13;100.0
34454;BME280;60061;52.080;5.312;2023-03-18T09:10:50;100953.0;;;14.18;100.0
34454;BME280;60061;52.080;5.312;2023-03-18T09:12:27;100955.0;;;14.18;100.0
34454;BME280;60061;52.080;5.312;2023-03-18T09:15:40;100950.0;;;14.14;100.0
34454;BME280;60061;52.080;5.312;2023-03-18T09:17:16;100955.0;;;14.16;100.0
34454;BME280;60061;52.080;5.312;2023-03-18T09:18:53;100961.0;;;14.2;100.0
34454;BME280;60061;52.080;5.312;2023-03-18T09:22:05;100956.0;;;14.2;100.0
34454;BME280;60061;52.080;5.312;2023-03-18T09:23:42;100969.0;;;14.18;100.0
34454;BME280;60061;52.080;5.312;2023-03-18T09:25:18;100969.0;;;14.16;100.0
34454;BME280;60061;52.080;5.312;2023-03-18T09:28:32;100973.0;;;14.12;100.0
34454;BME280;60061;52.080;5.312;2023-03-18T09:30:09;100974.0;;;14.12;100.0
34454;BME280;60061;52.080;5.312;2023-03-18T09:31:45;100972.0;;;14.09;100.0
34454;BME280;60061;52.080;5.312;2023-03-18T09:33:22;100977.0;;;14.15;100.0
34454;BME280;60061;52.080;5.312;2023-03-18T09:36:35;100974.0;;;14.16;100.0
34454;BME280;60061;52.080;5.312;2023-03-18T09:38:13;100976.0;;;14.14;100.0
34454;BME280;60061;52.080;5.312;2023-03-18T09:39:50;100981.0;;;14.13;100.0
34454;BME280;60061;52.080;5.312;2023-03-18T09:43:30;100987.0;;;14.19;100.0
34454;BME280;60061;52.080;5.312;2023-03-18T09:45:16;100986.0;;;14.19;100.0
34454;BME280;60061;52.080;5.312;2023-03-18T09:47:11;100985.0;;;14.19;100.0
34454;BME280;60061;52.080;5.312;2023-03-18T09:49:05;100992.0;;;14.24;100.0
34454;BME280;60061;52.080;5.312;2023-03-18T09:50:58;100992.0;;;14.22;100.0
34454;BME280;60061;52.080;5.312;2023-03-18T09:52:44;100994.0;;;14.22;100.0
34454;BME280;60061;52.080;5.312;2023-03-18T09:54:30;100998.0;;;14.32;100.0
34454;BME280;60061;52.080;5.312;2023-03-18T09:57:53;100995.0;;;14.32;100.0
34454;BME280;60061;52.080;5.312;2023-03-18T09:59:37;100995.0;;;14.34;100.0
34454;BME280;60061;52.080;5.312;2023-03-18T10:01:18;100997.0;;;14.38;100.0
34454;BME280;60061;52.080;5.312;2023-03-18T10:02:58;100997.0;;;14.42;100.0
34454;BME280;60061;52.080;5.312;2023-03-18T10:06:20;100993.0;;;14.48;100.0
34454;BME280;60061;52.080;5.312;2023-03-18T10:08:02;100992.0;;;14.56;100.0
34454;BME280;60061;52.080;5.312;2023-03-18T10:09:44;100994.0;;;14.65;100.0
34454;BME280;60061;52.080;5.312;2023-03-18T10:11:25;100996.0;;;14.73;100.0
34454;BME280;60061;52.080;5.312;2023-03-18T10:15:01;100991.0;;;14.77;100.0
34454;BME280;60061;52.080;5.312;2023-03-18T10:16:50;100995.0;;;14.77;100.0
34454;BME280;60061;52.080;5.312;2023-03-18T10:18:38;100997.0;;;14.78;100.0
34454;BME280;60061;52.080;5.312;2023-03-18T10:20:20;100995.0;;;14.76;100.0
34454;BME280;60061;52.080;5.312;2023-03-18T10:22:13;100998.0;;;14.76;100.0
34454;BME280;60061;52.080;5.312;2023-03-18T10:24:04;100997.0;;;14.81;100.0
34454;BME280;60061;52.080;5.312;2023-03-18T10:25:51;100997.0;;;14.79;100.0
34454;BME280;60061;52.080;5.312;2023-03-18T10:29:28;100998.0;;;14.73;100.0
34454;BME280;60061;52.080;5.312;2023-03-18T10:31:19;100993.0;;;14.68;100.0
34454;BME280;60061;52.080;5.312;2023-03-18T10:33:09;100992.0;;;14.64;100.0
34454;BME280;60061;52.080;5.312;2023-03-18T10:34:56;100988.0;;;14.7;100.0
34454;BME280;60061;52.080;5.312;2023-03-18T10:36:53;100986.0;;;14.81;100.0
34454;BME280;60061;52.080;5.312;2023-03-18T10:38:36;100990.0;;;14.87;100.0
34454;BME280;60061;52.080;5.312;2023-03-18T10:41:57;100989.0;;;14.95;100.0
34454;BME280;60061;52.080;5.312;2023-03-18T10:43:35;100993.0;;;14.93;100.0
34454;BME280;60061;52.080;5.312;2023-03-18T10:45:20;100992.0;;;15.0;100.0
34454;BME280;60061;52.080;5.312;2023-03-18T10:46:58;100991.0;;;15.23;100.0
34454;BME280;60061;52.080;5.312;2023-03-18T10:50:20;100986.0;;;15.28;100.0
34454;BME280;60061;52.080;5.312;2023-03-18T10:53:45;100982.0;;;15.29;100.0
34454;BME280;60061;52.080;5.312;2023-03-18T10:55:29;100976.0;;;15.38;100.0
34454;BME280;60061;52.080;5.312;2023-03-18T10:57:11;100984.0;;;15.39;100.0
34454;BME280;60061;52.080;5.312;2023-03-18T11:00:28;100986.0;;;15.48;100.0
34454;BME280;60061;52.080;5.312;2023-03-18T11:02:12;100984.0;;;15.48;99.06
34454;BME280;60061;52.080;5.312;2023-03-18T11:03:57;100986.0;;;15.52;98.84
34454;BME280;60061;52.080;5.312;2023-03-18T11:05:36;100988.0;;;15.57;98.76
34454;BME280;60061;52.080;5.312;2023-03-18T11:09:01;100990.0;;;15.59;98.67
34454;BME280;60061;52.080;5.312;2023-03-18T11:10:44;100987.0;;;15.56;98.24
34454;BME280;60061;52.080;5.312;2023-03-18T11:12:23;100983.0;;;15.6;98.44
34454;BME280;60061;52.080;5.312;2023-03-18T11:14:03;100981.0;;;15.6;98.79
34454;BME280;60061;52.080;5.312;2023-03-18T11:17:26;100983.0;;;15.68;98.87